sensor_id;sensor_type;location;lat;lon;timestamp;temperature;humidity
9057;DHT22;4563;54.756;9.400;2022-08-21T00:00:23;20.30;62.20
9057;DHT22;4563;54.756;9.400;2022-08-21T00:02:54;20.30;62.40
9057;DHT22;4563;54.756;9.400;2022-08-21T00:05:22;20.30;62.40
9057;DHT22;4563;54.756;9.400;2022-08-21T00:07:50;20.20;62.30
9057;DHT22;4563;54.756;9.400;2022-08-21T00:10:18;20.20;62.30
9057;DHT22;4563;54.756;9.400;2022-08-21T00:12:46;20.20;62.40
9057;DHT22;4563;54.756;9.400;2022-08-21T00:15:15;20.20;62.40
9057;DHT22;4563;54.756;9.400;2022-08-21T00:17:43;20.20;62.50
9057;DHT22;4563;54.756;9.400;2022-08-21T00:20:13;20.20;62.50
9057;DHT22;4563;54.756;9.400;2022-08-21T00:22:40;20.10;62.50
9057;DHT22;4563;54.756;9.400;2022-08-21T00:25:08;20.10;62.60
9057;DHT22;4563;54.756;9.400;2022-08-21T00:27:36;20.10;62.60
9057;DHT22;4563;54.756;9.400;2022-08-21T00:30:04;20.10;62.70
9057;DHT22;4563;54.756;9.400;2022-08-21T00:32:31;20.10;62.60
9057;DHT22;4563;54.756;9.400;2022-08-21T00:34:58;20.10;62.70
9057;DHT22;4563;54.756;9.400;2022-08-21T00:37:27;20.00;62.60
9057;DHT22;4563;54.756;9.400;2022-08-21T00:39:54;20.00;62.60
9057;DHT22;4563;54.756;9.400;2022-08-21T00:42:20;20.00;62.70
9057;DHT22;4563;54.756;9.400;2022-08-21T00:44:48;20.00;62.70
9057;DHT22;4563;54.756;9.400;2022-08-21T00:47:16;19.90;62.60
9057;DHT22;4563;54.756;9.400;2022-08-21T00:49:43;20.00;62.80
9057;DHT22;4563;54.756;9.400;2022-08-21T00:52:14;19.90;62.80
9057;DHT22;4563;54.756;9.400;2022-08-21T00:54:43;19.90;62.80
9057;DHT22;4563;54.756;9.400;2022-08-21T00:57:14;19.80;62.60
9057;DHT22;4563;54.756;9.400;2022-08-21T00:59:46;19.80;62.80
9057;DHT22;4563;54.756;9.400;2022-08-21T01:02:15;19.80;62.80
9057;DHT22;4563;54.756;9.400;2022-08-21T01:04:42;19.80;62.90
9057;DHT22;4563;54.756;9.400;2022-08-21T01:07:10;19.80;62.90
9057;DHT22;4563;54.756;9.400;2022-08-21T01:09:38;19.70;62.90
9057;DHT22;4563;54.756;9.400;2022-08-21T01:12:08;19.80;63.00
9057;DHT22;4563;54.756;9.400;2022-08-21T01:14:35;19.70;63.10
9057;DHT22;4563;54.756;9.400;2022-08-21T01:17:03;19.70;63.00
9057;DHT22;4563;54.756;9.400;2022-08-21T01:19:30;19.70;63.20
9057;DHT22;4563;54.756;9.400;2022-08-21T01:21:59;19.70;63.20
9057;DHT22;4563;54.756;9.400;2022-08-21T01:24:26;19.70;63.30
9057;DHT22;4563;54.756;9.400;2022-08-21T01:26:53;19.60;63.10
9057;DHT22;4563;54.756;9.400;2022-08-21T01:29:28;19.60;63.10
9057;DHT22;4563;54.756;9.400;2022-08-21T01:31:57;19.60;63.20
9057;DHT22;4563;54.756;9.400;2022-08-21T01:34:24;19.60;63.20
9057;DHT22;4563;54.756;9.400;2022-08-21T01:36:51;19.60;63.30
9057;DHT22;4563;54.756;9.400;2022-08-21T01:39:19;19.50;64.00
9057;DHT22;4563;54.756;9.400;2022-08-21T01:41:46;19.50;63.20
9057;DHT22;4563;54.756;9.400;2022-08-21T01:44:13;19.50;63.20
9057;DHT22;4563;54.756;9.400;2022-08-21T01:46:40;19.50;63.30
9057;DHT22;4563;54.756;9.400;2022-08-21T01:49:07;19.50;63.20
9057;DHT22;4563;54.756;9.400;2022-08-21T01:51:34;19.40;63.20
9057;DHT22;4563;54.756;9.400;2022-08-21T01:54:01;19.40;63.20
9057;DHT22;4563;54.756;9.400;2022-08-21T01:56:34;19.40;63.20
9057;DHT22;4563;54.756;9.400;2022-08-21T01:59:01;19.40;63.30
9057;DHT22;4563;54.756;9.400;2022-08-21T02:01:28;19.40;63.40
9057;DHT22;4563;54.756;9.400;2022-08-21T02:03:55;19.30;63.30
9057;DHT22;4563;54.756;9.400;2022-08-21T02:06:22;19.40;63.20
9057;DHT22;4563;54.756;9.400;2022-08-21T02:08:49;19.40;63.20
9057;DHT22;4563;54.756;9.400;2022-08-21T02:11:16;19.30;63.10
9057;DHT22;4563;54.756;9.400;2022-08-21T02:13:45;19.30;63.10
9057;DHT22;4563;54.756;9.400;2022-08-21T02:16:12;19.30;63.20
9057;DHT22;4563;54.756;9.400;2022-08-21T02:18:40;19.20;63.20
9057;DHT22;4563;54.756;9.400;2022-08-21T02:21:07;19.20;63.30
9057;DHT22;4563;54.756;9.400;2022-08-21T02:23:34;19.20;63.30
9057;DHT22;4563;54.756;9.400;2022-08-21T02:26:02;19.20;63.40
9057;DHT22;4563;54.756;9.400;2022-08-21T02:28:29;19.10;63.30
9057;DHT22;4563;54.756;9.400;2022-08-21T02:30:58;19.10;63.40
9057;DHT22;4563;54.756;9.400;2022-08-21T02:33:26;19.10;63.50
9057;DHT22;4563;54.756;9.400;2022-08-21T02:35:53;19.10;63.50
9057;DHT22;4563;54.756;9.400;2022-08-21T02:38:22;19.00;63.50
9057;DHT22;4563;54.756;9.400;2022-08-21T02:40:50;19.00;63.60
9057;DHT22;4563;54.756;9.400;2022-08-21T02:43:18;19.00;63.70
9057;DHT22;4563;54.756;9.400;2022-08-21T02:45:47;18.90;63.70
9057;DHT22;4563;54.756;9.400;2022-08-21T02:48:17;18.90;63.80
9057;DHT22;4563;54.756;9.400;2022-08-21T02:50:46;18.90;63.90
9057;DHT22;4563;54.756;9.400;2022-08-21T02:53:15;18.90;64.00
9057;DHT22;4563;54.756;9.400;2022-08-21T02:55:43;18.90;64.80
9057;DHT22;4563;54.756;9.400;2022-08-21T02:58:13;18.80;64.10
9057;DHT22;4563;54.756;9.400;2022-08-21T03:00:40;18.80;64.10
9057;DHT22;4563;54.756;9.400;2022-08-21T03:03:07;18.80;64.10
9057;DHT22;4563;54.756;9.400;2022-08-21T03:05:36;18.70;64.70
9057;DHT22;4563;54.756;9.400;2022-08-21T03:08:05;18.70;64.00
9057;DHT22;4563;54.756;9.400;2022-08-21T03:10:36;18.70;64.00
9057;DHT22;4563;54.756;9.400;2022-08-21T03:13:05;18.60;64.00
9057;DHT22;4563;54.756;9.400;2022-08-21T03:15:32;18.60;64.10
9057;DHT22;4563;54.756;9.400;2022-08-21T03:17:59;18.60;64.20
9057;DHT22;4563;54.756;9.400;2022-08-21T03:20:28;18.50;64.20
9057;DHT22;4563;54.756;9.400;2022-08-21T03:22:59;18.50;64.30
9057;DHT22;4563;54.756;9.400;2022-08-21T03:25:27;18.50;64.40
9057;DHT22;4563;54.756;9.400;2022-08-21T03:27:54;18.50;64.40
9057;DHT22;4563;54.756;9.400;2022-08-21T03:30:21;18.50;64.50
9057;DHT22;4563;54.756;9.400;2022-08-21T03:32:48;18.40;64.50
9057;DHT22;4563;54.756;9.400;2022-08-21T03:35:16;18.40;64.50
9057;DHT22;4563;54.756;9.400;2022-08-21T03:37:44;18.40;64.50
9057;DHT22;4563;54.756;9.400;2022-08-21T03:40:14;18.40;64.50
9057;DHT22;4563;54.756;9.400;2022-08-21T03:42:41;18.30;64.40
9057;DHT22;4563;54.756;9.400;2022-08-21T03:45:09;18.30;64.40
9057;DHT22;4563;54.756;9.400;2022-08-21T03:47:36;18.30;64.40
9057;DHT22;4563;54.756;9.400;2022-08-21T03:50:04;18.30;64.50
9057;DHT22;4563;54.756;9.400;2022-08-21T03:52:31;18.20;64.40
9057;DHT22;4563;54.756;9.400;2022-08-21T03:54:58;18.20;64.30
9057;DHT22;4563;54.756;9.400;2022-08-21T03:57:26;18.20;64.40
9057;DHT22;4563;54.756;9.400;2022-08-21T03:59:53;18.20;64.40
9057;DHT22;4563;54.756;9.400;2022-08-21T04:02:21;18.10;64.40
9057;DHT22;4563;54.756;9.400;2022-08-21T04:04:47;18.10;64.40
9057;DHT22;4563;54.756;9.400;2022-08-21T04:07:14;18.10;64.50
9057;DHT22;4563;54.756;9.400;2022-08-21T04:09:41;18.10;64.60
9057;DHT22;4563;54.756;9.400;2022-08-21T04:12:08;18.00;64.50
9057;DHT22;4563;54.756;9.400;2022-08-21T04:14:36;18.00;64.70
9057;DHT22;4563;54.756;9.400;2022-08-21T04:17:03;18.00;64.90
9057;DHT22;4563;54.756;9.400;2022-08-21T04:19:30;17.90;64.90
9057;DHT22;4563;54.756;9.400;2022-08-21T04:21:57;17.90;65.00
9057;DHT22;4563;54.756;9.400;2022-08-21T04:24:24;17.90;65.10
9057;DHT22;4563;54.756;9.400;2022-08-21T04:26:51;17.90;65.30
9057;DHT22;4563;54.756;9.400;2022-08-21T04:29:18;17.90;65.30
9057;DHT22;4563;54.756;9.400;2022-08-21T04:31:46;17.80;65.30
9057;DHT22;4563;54.756;9.400;2022-08-21T04:34:13;17.80;65.50
9057;DHT22;4563;54.756;9.400;2022-08-21T04:36:40;17.80;65.50
9057;DHT22;4563;54.756;9.400;2022-08-21T04:39:07;17.80;65.50
9057;DHT22;4563;54.756;9.400;2022-08-21T04:41:34;17.80;65.60
9057;DHT22;4563;54.756;9.400;2022-08-21T04:44:02;17.80;65.70
9057;DHT22;4563;54.756;9.400;2022-08-21T04:46:29;17.80;65.80
9057;DHT22;4563;54.756;9.400;2022-08-21T04:48:57;17.80;65.80
9057;DHT22;4563;54.756;9.400;2022-08-21T04:51:27;17.80;65.70
9057;DHT22;4563;54.756;9.400;2022-08-21T04:53:59;17.80;65.70
9057;DHT22;4563;54.756;9.400;2022-08-21T04:56:33;17.80;65.80
9057;DHT22;4563;54.756;9.400;2022-08-21T04:59:05;17.80;65.80
9057;DHT22;4563;54.756;9.400;2022-08-21T05:01:35;17.70;65.80
9057;DHT22;4563;54.756;9.400;2022-08-21T05:04:09;17.70;65.80
9057;DHT22;4563;54.756;9.400;2022-08-21T05:06:38;17.70;65.90
9057;DHT22;4563;54.756;9.400;2022-08-21T05:09:08;17.70;66.00
9057;DHT22;4563;54.756;9.400;2022-08-21T05:11:35;17.70;66.10
9057;DHT22;4563;54.756;9.400;2022-08-21T05:14:03;17.70;66.20
9057;DHT22;4563;54.756;9.400;2022-08-21T05:16:30;17.70;66.20
9057;DHT22;4563;54.756;9.400;2022-08-21T05:18:57;17.70;66.40
9057;DHT22;4563;54.756;9.400;2022-08-21T05:21:25;17.70;66.50
9057;DHT22;4563;54.756;9.400;2022-08-21T05:23:52;17.70;66.60
9057;DHT22;4563;54.756;9.400;2022-08-21T05:26:19;17.80;66.70
9057;DHT22;4563;54.756;9.400;2022-08-21T05:28:46;17.80;66.70
9057;DHT22;4563;54.756;9.400;2022-08-21T05:31:13;17.80;66.70
9057;DHT22;4563;54.756;9.400;2022-08-21T05:33:40;17.80;66.70
9057;DHT22;4563;54.756;9.400;2022-08-21T05:36:07;17.80;67.50
9057;DHT22;4563;54.756;9.400;2022-08-21T05:38:35;17.80;66.80
9057;DHT22;4563;54.756;9.400;2022-08-21T05:41:02;17.80;66.80
9057;DHT22;4563;54.756;9.400;2022-08-21T05:43:29;17.80;66.90
9057;DHT22;4563;54.756;9.400;2022-08-21T05:45:58;17.90;67.00
9057;DHT22;4563;54.756;9.400;2022-08-21T05:48:25;17.90;67.00
9057;DHT22;4563;54.756;9.400;2022-08-21T05:50:52;17.90;67.00
9057;DHT22;4563;54.756;9.400;2022-08-21T05:53:21;17.90;67.10
9057;DHT22;4563;54.756;9.400;2022-08-21T05:55:51;17.90;67.20
9057;DHT22;4563;54.756;9.400;2022-08-21T05:58:20;18.00;67.40
9057;DHT22;4563;54.756;9.400;2022-08-21T06:00:49;17.90;67.40
9057;DHT22;4563;54.756;9.400;2022-08-21T06:03:18;18.00;67.50
9057;DHT22;4563;54.756;9.400;2022-08-21T06:05:46;18.00;67.60
9057;DHT22;4563;54.756;9.400;2022-08-21T06:08:13;18.00;67.60
9057;DHT22;4563;54.756;9.400;2022-08-21T06:10:41;18.10;67.80
9057;DHT22;4563;54.756;9.400;2022-08-21T06:13:09;18.10;68.00
9057;DHT22;4563;54.756;9.400;2022-08-21T06:15:37;18.20;68.20
9057;DHT22;4563;54.756;9.400;2022-08-21T06:18:04;18.20;68.20
9057;DHT22;4563;54.756;9.400;2022-08-21T06:20:32;18.20;68.30
9057;DHT22;4563;54.756;9.400;2022-08-21T06:22:59;18.30;68.40
9057;DHT22;4563;54.756;9.400;2022-08-21T06:25:27;18.30;68.40
9057;DHT22;4563;54.756;9.400;2022-08-21T06:28:00;18.30;68.40
9057;DHT22;4563;54.756;9.400;2022-08-21T06:30:29;18.40;68.50
9057;DHT22;4563;54.756;9.400;2022-08-21T06:32:56;18.40;68.90
9057;DHT22;4563;54.756;9.400;2022-08-21T06:35:23;18.40;68.40
9057;DHT22;4563;54.756;9.400;2022-08-21T06:37:49;18.50;68.50
9057;DHT22;4563;54.756;9.400;2022-08-21T06:40:16;18.50;68.50
9057;DHT22;4563;54.756;9.400;2022-08-21T06:42:43;18.60;69.40
9057;DHT22;4563;54.756;9.400;2022-08-21T06:45:10;18.60;68.60
9057;DHT22;4563;54.756;9.400;2022-08-21T06:47:41;18.60;68.40
9057;DHT22;4563;54.756;9.400;2022-08-21T06:50:08;18.70;68.40
9057;DHT22;4563;54.756;9.400;2022-08-21T06:52:36;18.70;68.20
9057;DHT22;4563;54.756;9.400;2022-08-21T06:55:05;18.80;68.20
9057;DHT22;4563;54.756;9.400;2022-08-21T06:57:33;18.90;68.00
9057;DHT22;4563;54.756;9.400;2022-08-21T07:00:01;18.90;67.90
9057;DHT22;4563;54.756;9.400;2022-08-21T07:02:28;19.00;68.00
9057;DHT22;4563;54.756;9.400;2022-08-21T07:04:58;19.00;67.90
9057;DHT22;4563;54.756;9.400;2022-08-21T07:07:25;19.00;67.70
9057;DHT22;4563;54.756;9.400;2022-08-21T07:09:51;19.10;67.60
9057;DHT22;4563;54.756;9.400;2022-08-21T07:12:19;19.20;67.40
9057;DHT22;4563;54.756;9.400;2022-08-21T07:14:46;19.20;67.20
9057;DHT22;4563;54.756;9.400;2022-08-21T07:17:14;19.30;67.30
9057;DHT22;4563;54.756;9.400;2022-08-21T07:19:41;19.40;67.20
9057;DHT22;4563;54.756;9.400;2022-08-21T07:22:09;19.40;67.20
9057;DHT22;4563;54.756;9.400;2022-08-21T07:24:36;19.40;67.00
9057;DHT22;4563;54.756;9.400;2022-08-21T07:27:03;19.40;66.60
9057;DHT22;4563;54.756;9.400;2022-08-21T07:29:31;19.50;66.50
9057;DHT22;4563;54.756;9.400;2022-08-21T07:31:58;19.60;66.90
9057;DHT22;4563;54.756;9.400;2022-08-21T07:34:25;19.70;65.80
9057;DHT22;4563;54.756;9.400;2022-08-21T07:36:52;19.70;65.60
9057;DHT22;4563;54.756;9.400;2022-08-21T07:39:20;19.80;65.40
9057;DHT22;4563;54.756;9.400;2022-08-21T07:41:48;19.80;65.90
9057;DHT22;4563;54.756;9.400;2022-08-21T07:44:15;19.90;65.20
9057;DHT22;4563;54.756;9.400;2022-08-21T07:46:41;19.90;64.90
9057;DHT22;4563;54.756;9.400;2022-08-21T07:49:08;20.00;65.00
9057;DHT22;4563;54.756;9.400;2022-08-21T07:51:35;20.10;65.40
9057;DHT22;4563;54.756;9.400;2022-08-21T07:54:02;20.10;65.50
9057;DHT22;4563;54.756;9.400;2022-08-21T07:56:30;20.20;65.70
9057;DHT22;4563;54.756;9.400;2022-08-21T07:58:57;20.30;65.90
9057;DHT22;4563;54.756;9.400;2022-08-21T08:01:25;20.40;66.10
9057;DHT22;4563;54.756;9.400;2022-08-21T08:03:52;20.50;66.20
9057;DHT22;4563;54.756;9.400;2022-08-21T08:06:19;20.60;66.30
9057;DHT22;4563;54.756;9.400;2022-08-21T08:08:46;20.60;66.20
9057;DHT22;4563;54.756;9.400;2022-08-21T08:11:13;20.70;66.50
9057;DHT22;4563;54.756;9.400;2022-08-21T08:13:44;20.80;66.60
9057;DHT22;4563;54.756;9.400;2022-08-21T08:16:11;20.90;66.60
9057;DHT22;4563;54.756;9.400;2022-08-21T08:18:38;21.00;66.60
9057;DHT22;4563;54.756;9.400;2022-08-21T08:21:07;21.10;67.20
9057;DHT22;4563;54.756;9.400;2022-08-21T08:23:34;21.20;66.60
9057;DHT22;4563;54.756;9.400;2022-08-21T08:26:01;21.30;66.50
9057;DHT22;4563;54.756;9.400;2022-08-21T08:28:32;21.40;66.50
9057;DHT22;4563;54.756;9.400;2022-08-21T08:31:01;21.50;66.50
9057;DHT22;4563;54.756;9.400;2022-08-21T08:33:28;21.60;66.50
9057;DHT22;4563;54.756;9.400;2022-08-21T08:35:55;21.80;66.40
9057;DHT22;4563;54.756;9.400;2022-08-21T08:38:23;21.90;67.10
9057;DHT22;4563;54.756;9.400;2022-08-21T08:40:55;22.00;66.70
9057;DHT22;4563;54.756;9.400;2022-08-21T08:43:27;22.10;66.60
9057;DHT22;4563;54.756;9.400;2022-08-21T08:46:01;22.30;66.20
9057;DHT22;4563;54.756;9.400;2022-08-21T08:48:41;22.50;66.50
9057;DHT22;4563;54.756;9.400;2022-08-21T08:51:16;22.60;66.80
9057;DHT22;4563;54.756;9.400;2022-08-21T08:53:49;22.80;66.50
9057;DHT22;4563;54.756;9.400;2022-08-21T08:56:21;23.00;66.20
9057;DHT22;4563;54.756;9.400;2022-08-21T08:58:50;23.20;65.90
9057;DHT22;4563;54.756;9.400;2022-08-21T09:01:20;23.40;65.70
9057;DHT22;4563;54.756;9.400;2022-08-21T09:03:48;23.50;65.40
9057;DHT22;4563;54.756;9.400;2022-08-21T09:06:30;23.70;65.00
9057;DHT22;4563;54.756;9.400;2022-08-21T09:09:08;23.90;65.90
9057;DHT22;4563;54.756;9.400;2022-08-21T09:11:43;24.10;64.90
9057;DHT22;4563;54.756;9.400;2022-08-21T09:14:20;24.30;64.80
9057;DHT22;4563;54.756;9.400;2022-08-21T09:16:58;24.50;64.60
9057;DHT22;4563;54.756;9.400;2022-08-21T09:19:41;24.80;65.00
9057;DHT22;4563;54.756;9.400;2022-08-21T09:22:19;25.00;65.70
9057;DHT22;4563;54.756;9.400;2022-08-21T09:25:02;25.20;64.10
9057;DHT22;4563;54.756;9.400;2022-08-21T09:27:33;25.50;65.60
9057;DHT22;4563;54.756;9.400;2022-08-21T09:30:01;25.70;62.10
9057;DHT22;4563;54.756;9.400;2022-08-21T09:32:31;26.00;61.50
9057;DHT22;4563;54.756;9.400;2022-08-21T09:35:00;26.20;61.00
9057;DHT22;4563;54.756;9.400;2022-08-21T09:37:29;26.50;60.20
9057;DHT22;4563;54.756;9.400;2022-08-21T09:39:57;26.70;59.20
9057;DHT22;4563;54.756;9.400;2022-08-21T09:42:28;26.90;58.20
9057;DHT22;4563;54.756;9.400;2022-08-21T09:45:13;27.20;58.00
9057;DHT22;4563;54.756;9.400;2022-08-21T09:47:43;27.50;61.70
9057;DHT22;4563;54.756;9.400;2022-08-21T09:50:14;27.70;56.00
9057;DHT22;4563;54.756;9.400;2022-08-21T09:52:46;27.90;55.50
9057;DHT22;4563;54.756;9.400;2022-08-21T09:55:21;28.10;56.40
9057;DHT22;4563;54.756;9.400;2022-08-21T09:58:07;28.30;55.80
9057;DHT22;4563;54.756;9.400;2022-08-21T10:00:35;28.60;53.30
9057;DHT22;4563;54.756;9.400;2022-08-21T10:03:15;28.80;52.20
9057;DHT22;4563;54.756;9.400;2022-08-21T10:05:52;29.00;56.10
9057;DHT22;4563;54.756;9.400;2022-08-21T10:08:20;29.30;54.40
9057;DHT22;4563;54.756;9.400;2022-08-21T10:10:51;29.50;51.20
9057;DHT22;4563;54.756;9.400;2022-08-21T10:13:25;29.70;51.70
9057;DHT22;4563;54.756;9.400;2022-08-21T10:16:01;29.90;51.30
9057;DHT22;4563;54.756;9.400;2022-08-21T10:18:36;30.10;51.60
9057;DHT22;4563;54.756;9.400;2022-08-21T10:21:10;30.30;52.70
9057;DHT22;4563;54.756;9.400;2022-08-21T10:23:54;30.50;51.30
9057;DHT22;4563;54.756;9.400;2022-08-21T10:26:35;30.70;53.10
9057;DHT22;4563;54.756;9.400;2022-08-21T10:29:09;30.90;51.80
9057;DHT22;4563;54.756;9.400;2022-08-21T10:31:49;31.20;51.00
9057;DHT22;4563;54.756;9.400;2022-08-21T10:34:31;31.40;51.70
9057;DHT22;4563;54.756;9.400;2022-08-21T10:37:12;31.60;51.30
9057;DHT22;4563;54.756;9.400;2022-08-21T10:39:48;31.80;50.20
9057;DHT22;4563;54.756;9.400;2022-08-21T10:42:28;32.00;48.20
9057;DHT22;4563;54.756;9.400;2022-08-21T10:45:07;32.30;48.50
9057;DHT22;4563;54.756;9.400;2022-08-21T10:47:42;32.50;50.00
9057;DHT22;4563;54.756;9.400;2022-08-21T10:50:19;32.60;49.40
9057;DHT22;4563;54.756;9.400;2022-08-21T10:53:03;32.80;49.20
9057;DHT22;4563;54.756;9.400;2022-08-21T10:55:35;32.90;51.00
9057;DHT22;4563;54.756;9.400;2022-08-21T10:58:08;33.00;46.60
9057;DHT22;4563;54.756;9.400;2022-08-21T11:00:50;33.10;46.70
9057;DHT22;4563;54.756;9.400;2022-08-21T11:03:23;33.30;52.80
9057;DHT22;4563;54.756;9.400;2022-08-21T11:05:55;33.30;46.70
9057;DHT22;4563;54.756;9.400;2022-08-21T11:08:28;33.50;47.10
9057;DHT22;4563;54.756;9.400;2022-08-21T11:11:01;33.60;46.50
9057;DHT22;4563;54.756;9.400;2022-08-21T11:13:35;33.70;45.90
9057;DHT22;4563;54.756;9.400;2022-08-21T11:16:09;33.80;46.40
9057;DHT22;4563;54.756;9.400;2022-08-21T11:18:39;34.00;47.50
9057;DHT22;4563;54.756;9.400;2022-08-21T11:21:32;34.10;46.00
9057;DHT22;4563;54.756;9.400;2022-08-21T11:24:08;34.20;50.00
9057;DHT22;4563;54.756;9.400;2022-08-21T11:26:43;34.40;46.40
9057;DHT22;4563;54.756;9.400;2022-08-21T11:29:15;34.50;46.80
9057;DHT22;4563;54.756;9.400;2022-08-21T11:31:56;34.70;45.80
9057;DHT22;4563;54.756;9.400;2022-08-21T11:34:43;34.80;49.80
9057;DHT22;4563;54.756;9.400;2022-08-21T11:37:19;34.90;49.60
9057;DHT22;4563;54.756;9.400;2022-08-21T11:39:56;35.00;47.80
9057;DHT22;4563;54.756;9.400;2022-08-21T11:42:28;35.10;47.10
9057;DHT22;4563;54.756;9.400;2022-08-21T11:45:14;35.20;45.00
9057;DHT22;4563;54.756;9.400;2022-08-21T11:47:52;35.30;49.40
9057;DHT22;4563;54.756;9.400;2022-08-21T11:50:23;35.40;47.40
9057;DHT22;4563;54.756;9.400;2022-08-21T11:52:59;35.50;44.60
9057;DHT22;4563;54.756;9.400;2022-08-21T11:55:30;35.50;45.70
9057;DHT22;4563;54.756;9.400;2022-08-21T11:58:01;35.50;45.10
9057;DHT22;4563;54.756;9.400;2022-08-21T12:00:34;35.50;44.40
9057;DHT22;4563;54.756;9.400;2022-08-21T12:03:09;35.50;44.40
9057;DHT22;4563;54.756;9.400;2022-08-21T12:05:39;35.40;44.50
9057;DHT22;4563;54.756;9.400;2022-08-21T12:08:12;35.40;44.10
9057;DHT22;4563;54.756;9.400;2022-08-21T12:10:42;35.30;45.50
9057;DHT22;4563;54.756;9.400;2022-08-21T12:13:26;35.20;44.00
9057;DHT22;4563;54.756;9.400;2022-08-21T12:16:05;35.10;49.50
9057;DHT22;4563;54.756;9.400;2022-08-21T12:18:32;34.90;49.90
9057;DHT22;4563;54.756;9.400;2022-08-21T12:21:04;34.80;45.20
9057;DHT22;4563;54.756;9.400;2022-08-21T12:23:43;34.70;45.80
9057;DHT22;4563;54.756;9.400;2022-08-21T12:26:28;34.60;46.00
9057;DHT22;4563;54.756;9.400;2022-08-21T12:29:15;34.40;48.10
9057;DHT22;4563;54.756;9.400;2022-08-21T12:31:53;34.30;49.60
9057;DHT22;4563;54.756;9.400;2022-08-21T12:34:22;34.10;49.20
9057;DHT22;4563;54.756;9.400;2022-08-21T12:36:54;34.00;46.80
9057;DHT22;4563;54.756;9.400;2022-08-21T12:39:26;33.80;47.50
9057;DHT22;4563;54.756;9.400;2022-08-21T12:42:03;33.60;47.40
9057;DHT22;4563;54.756;9.400;2022-08-21T12:44:38;33.50;48.80
9057;DHT22;4563;54.756;9.400;2022-08-21T12:47:14;33.30;47.60
9057;DHT22;4563;54.756;9.400;2022-08-21T12:49:58;33.10;48.20
9057;DHT22;4563;54.756;9.400;2022-08-21T12:52:30;33.00;47.80
9057;DHT22;4563;54.756;9.400;2022-08-21T12:55:00;32.80;47.90
9057;DHT22;4563;54.756;9.400;2022-08-21T12:57:28;32.70;47.70
9057;DHT22;4563;54.756;9.400;2022-08-21T12:59:57;32.60;47.90
9057;DHT22;4563;54.756;9.400;2022-08-21T13:02:28;32.40;48.00
9057;DHT22;4563;54.756;9.400;2022-08-21T13:04:56;32.30;48.60
9057;DHT22;4563;54.756;9.400;2022-08-21T13:07:28;32.20;48.20
9057;DHT22;4563;54.756;9.400;2022-08-21T13:10:00;32.00;48.60
9057;DHT22;4563;54.756;9.400;2022-08-21T13:12:28;31.90;48.70
9057;DHT22;4563;54.756;9.400;2022-08-21T13:14:58;31.80;48.90
9057;DHT22;4563;54.756;9.400;2022-08-21T13:17:26;31.70;49.00
9057;DHT22;4563;54.756;9.400;2022-08-21T13:19:55;31.60;48.40
9057;DHT22;4563;54.756;9.400;2022-08-21T13:22:24;31.40;48.20
9057;DHT22;4563;54.756;9.400;2022-08-21T13:24:52;31.30;48.70
9057;DHT22;4563;54.756;9.400;2022-08-21T13:27:23;31.20;48.90
9057;DHT22;4563;54.756;9.400;2022-08-21T13:30:04;31.10;49.20
9057;DHT22;4563;54.756;9.400;2022-08-21T13:32:34;31.00;50.40
9057;DHT22;4563;54.756;9.400;2022-08-21T13:35:10;30.90;48.80
9057;DHT22;4563;54.756;9.400;2022-08-21T13:37:38;30.80;50.10
9057;DHT22;4563;54.756;9.400;2022-08-21T13:40:10;30.70;49.30
9057;DHT22;4563;54.756;9.400;2022-08-21T13:42:41;30.50;49.50
9057;DHT22;4563;54.756;9.400;2022-08-21T13:45:17;30.50;49.60
9057;DHT22;4563;54.756;9.400;2022-08-21T13:47:46;30.40;49.70
9057;DHT22;4563;54.756;9.400;2022-08-21T13:50:15;30.30;49.60
9057;DHT22;4563;54.756;9.400;2022-08-21T13:52:56;30.20;49.50
9057;DHT22;4563;54.756;9.400;2022-08-21T13:55:23;30.20;52.20
9057;DHT22;4563;54.756;9.400;2022-08-21T13:58:00;30.10;49.50
9057;DHT22;4563;54.756;9.400;2022-08-21T14:00:30;30.10;51.20
9057;DHT22;4563;54.756;9.400;2022-08-21T14:03:06;30.00;49.20
9057;DHT22;4563;54.756;9.400;2022-08-21T14:05:36;30.00;50.10
9057;DHT22;4563;54.756;9.400;2022-08-21T14:08:06;29.90;49.20
9057;DHT22;4563;54.756;9.400;2022-08-21T14:10:36;29.80;49.60
9057;DHT22;4563;54.756;9.400;2022-08-21T14:13:28;29.80;49.90
9057;DHT22;4563;54.756;9.400;2022-08-21T14:15:57;29.70;52.10
9057;DHT22;4563;54.756;9.400;2022-08-21T14:18:25;29.60;49.80
9057;DHT22;4563;54.756;9.400;2022-08-21T14:21:04;29.60;50.00
9057;DHT22;4563;54.756;9.400;2022-08-21T14:23:31;29.50;51.10
9057;DHT22;4563;54.756;9.400;2022-08-21T14:26:00;29.40;49.50
9057;DHT22;4563;54.756;9.400;2022-08-21T14:28:31;29.30;49.60
9057;DHT22;4563;54.756;9.400;2022-08-21T14:31:12;29.30;49.40
9057;DHT22;4563;54.756;9.400;2022-08-21T14:33:39;29.20;50.60
9057;DHT22;4563;54.756;9.400;2022-08-21T14:36:06;29.10;49.40
9057;DHT22;4563;54.756;9.400;2022-08-21T14:38:35;29.10;49.90
9057;DHT22;4563;54.756;9.400;2022-08-21T14:41:04;29.00;49.80
9057;DHT22;4563;54.756;9.400;2022-08-21T14:43:36;28.90;50.00
9057;DHT22;4563;54.756;9.400;2022-08-21T14:46:03;28.90;49.80
9057;DHT22;4563;54.756;9.400;2022-08-21T14:48:30;28.80;50.30
9057;DHT22;4563;54.756;9.400;2022-08-21T14:50:57;28.70;50.40
9057;DHT22;4563;54.756;9.400;2022-08-21T14:53:24;28.70;50.30
9057;DHT22;4563;54.756;9.400;2022-08-21T14:55:51;28.60;50.00
9057;DHT22;4563;54.756;9.400;2022-08-21T14:58:36;28.60;50.20
9057;DHT22;4563;54.756;9.400;2022-08-21T15:01:05;28.50;50.30
9057;DHT22;4563;54.756;9.400;2022-08-21T15:03:32;28.40;50.60
9057;DHT22;4563;54.756;9.400;2022-08-21T15:06:00;28.40;50.60
9057;DHT22;4563;54.756;9.400;2022-08-21T15:08:27;28.30;51.00
9057;DHT22;4563;54.756;9.400;2022-08-21T15:10:54;28.30;51.10
9057;DHT22;4563;54.756;9.400;2022-08-21T15:13:22;28.30;51.20
9057;DHT22;4563;54.756;9.400;2022-08-21T15:15:51;28.20;51.10
9057;DHT22;4563;54.756;9.400;2022-08-21T15:18:19;28.20;51.20
9057;DHT22;4563;54.756;9.400;2022-08-21T15:20:46;28.10;51.20
9057;DHT22;4563;54.756;9.400;2022-08-21T15:23:13;28.10;51.30
9057;DHT22;4563;54.756;9.400;2022-08-21T15:25:41;28.00;51.60
9057;DHT22;4563;54.756;9.400;2022-08-21T15:28:08;28.00;51.60
9057;DHT22;4563;54.756;9.400;2022-08-21T15:30:37;27.90;51.20
9057;DHT22;4563;54.756;9.400;2022-08-21T15:33:05;27.90;51.20
9057;DHT22;4563;54.756;9.400;2022-08-21T15:35:33;27.80;52.00
9057;DHT22;4563;54.756;9.400;2022-08-21T15:38:00;27.70;51.40
9057;DHT22;4563;54.756;9.400;2022-08-21T15:40:27;27.70;51.40
9057;DHT22;4563;54.756;9.400;2022-08-21T15:42:57;27.70;51.40
9057;DHT22;4563;54.756;9.400;2022-08-21T15:45:25;27.60;51.30
9057;DHT22;4563;54.756;9.400;2022-08-21T15:47:52;27.60;51.50
9057;DHT22;4563;54.756;9.400;2022-08-21T15:50:22;27.50;52.00
9057;DHT22;4563;54.756;9.400;2022-08-21T15:52:49;27.50;52.40
9057;DHT22;4563;54.756;9.400;2022-08-21T15:55:16;27.40;52.30
9057;DHT22;4563;54.756;9.400;2022-08-21T15:57:45;27.40;52.40
9057;DHT22;4563;54.756;9.400;2022-08-21T16:00:15;27.30;52.70
9057;DHT22;4563;54.756;9.400;2022-08-21T16:02:45;27.20;52.90
9057;DHT22;4563;54.756;9.400;2022-08-21T16:05:13;27.20;53.10
9057;DHT22;4563;54.756;9.400;2022-08-21T16:07:43;27.10;52.90
9057;DHT22;4563;54.756;9.400;2022-08-21T16:10:11;27.10;53.00
9057;DHT22;4563;54.756;9.400;2022-08-21T16:12:40;27.00;52.80
9057;DHT22;4563;54.756;9.400;2022-08-21T16:15:10;26.90;53.00
9057;DHT22;4563;54.756;9.400;2022-08-21T16:17:39;26.90;53.00
9057;DHT22;4563;54.756;9.400;2022-08-21T16:20:12;26.80;53.10